createdAt,value
2019-04-16T00:03:02.793Z,10.37
2019-04-16T00:08:26.571Z,10.27
2019-04-16T00:13:19.495Z,13.30
2019-04-16T00:18:25.315Z,12.37
2019-04-16T00:23:47.876Z,9.43
2019-04-16T00:28:53.596Z,10.57
2019-04-16T00:33:59.529Z,10.83
2019-04-16T00:39:06.824Z,12.17
2019-04-16T00:44:13.442Z,10.53
2019-04-16T00:49:19.276Z,10.60
2019-04-16T00:54:25.301Z,15.40
2019-04-16T00:59:31.158Z,17.07
2019-04-16T01:04:36.803Z,13.43
2019-04-16T01:09:42.702Z,13.50
2019-04-16T01:14:48.348Z,12.90
2019-04-16T01:19:54.150Z,11.00
2019-04-16T01:25:00.008Z,10.53
2019-04-16T01:30:09.531Z,13.80
2019-04-16T01:35:33.008Z,9.40
2019-04-16T01:40:55.674Z,11.53
2019-04-16T01:46:02.445Z,11.77
2019-04-16T01:51:08.488Z,10.73
2019-04-16T01:56:14.518Z,10.20
2019-04-16T02:01:20.396Z,13.80
2019-04-16T02:06:26.657Z,11.73
2019-04-16T02:11:32.830Z,13.20
2019-04-16T02:16:38.722Z,11.63
2019-04-16T02:21:44.492Z,12.07
2019-04-16T02:26:54.601Z,9.87
2019-04-16T02:31:58.934Z,10.27
2019-04-16T02:37:04.602Z,11.27
2019-04-16T02:42:10.345Z,9.77
2019-04-16T02:47:16.199Z,9.40
2019-04-16T02:52:32.619Z,8.60
2019-04-16T02:57:45.964Z,9.33
2019-04-16T03:02:54.007Z,9.90
2019-04-16T03:08:04.470Z,10.80
2019-04-16T03:13:08.903Z,10.60
2019-04-16T03:18:16.321Z,11.33
2019-04-16T03:23:22.122Z,10.47
2019-04-16T03:28:28.164Z,11.87
2019-04-16T03:33:34.086Z,8.77
2019-04-16T03:38:42.001Z,10.90
2019-04-16T03:43:47.223Z,12.27
2019-04-16T03:48:56.157Z,11.73
2019-04-16T03:54:00.484Z,10.47
2019-04-16T03:59:10.740Z,12.23
2019-04-16T04:04:13.852Z,13.40
2019-04-16T04:09:22.210Z,12.93
2019-04-16T04:14:27.248Z,13.27
2019-04-16T04:19:33.011Z,13.77
2019-04-16T04:24:38.828Z,13.70
2019-04-16T04:29:46.280Z,15.43
2019-04-16T04:34:53.452Z,13.07
2019-04-16T04:39:59.362Z,10.67
2019-04-16T04:45:08.942Z,12.60
2019-04-16T04:50:14.396Z,13.00
2019-04-16T04:55:20.160Z,12.93
2019-04-16T05:00:25.854Z,12.73
2019-04-16T05:05:36.717Z,11.97
2019-04-16T05:10:43.273Z,7.77
2019-04-16T05:15:49.881Z,10.03
2019-04-16T05:20:55.654Z,10.63
2019-04-16T05:26:04.459Z,10.97
2019-04-16T05:31:08.970Z,9.67
2019-04-16T05:36:15.424Z,10.97
2019-04-16T05:41:22.769Z,13.07
2019-04-16T05:46:28.691Z,10.77
2019-04-16T05:51:34.558Z,11.17
2019-04-16T05:56:41.969Z,12.80
2019-04-16T06:01:57.337Z,11.37
2019-04-16T06:07:07.330Z,14.53
2019-04-16T06:12:10.234Z,11.70
2019-04-16T06:17:25.425Z,10.03
2019-04-16T06:22:38.765Z,9.93
2019-04-16T06:28:03.233Z,12.57
2019-04-16T06:33:10.534Z,11.50
2019-04-16T06:38:27.931Z,13.33
2019-04-16T06:43:35.432Z,12.57
2019-04-16T06:48:51.751Z,13.27
2019-04-16T06:53:59.697Z,11.70
2019-04-16T06:59:07.212Z,12.43
2019-04-16T07:04:15.074Z,11.77
2019-04-16T07:09:25.191Z,14.33
2019-04-16T07:14:30.624Z,12.60
2019-04-16T07:19:36.354Z,14.10
2019-04-16T07:24:42.288Z,12.57
2019-04-16T07:29:52.983Z,11.80
2019-04-16T07:35:01.819Z,11.47
2019-04-16T07:40:10.540Z,9.77
2019-04-16T07:45:23.925Z,12.83
2019-04-16T07:50:46.551Z,11.53
2019-04-16T07:55:54.045Z,13.50
2019-04-16T08:01:00.355Z,11.97
2019-04-16T08:06:06.027Z,11.50
2019-04-16T08:11:11.877Z,12.70
2019-04-16T08:16:17.744Z,17.97
2019-04-16T08:21:23.618Z,13.30
2019-04-16T08:26:29.402Z,16.17
2019-04-16T08:31:36.914Z,12.73
2019-04-16T08:36:42.869Z,18.90
2019-04-16T08:41:52.087Z,15.53
2019-04-16T08:46:58.633Z,10.60
2019-04-16T08:52:03.959Z,13.00
2019-04-16T08:57:09.934Z,12.10
2019-04-16T09:02:15.704Z,10.67
2019-04-16T09:07:40.004Z,9.00
2019-04-16T09:12:55.959Z,11.37
2019-04-16T09:17:54.992Z,9.50
2019-04-16T09:23:01.613Z,9.47
2019-04-16T09:28:24.429Z,8.43
2019-04-16T09:33:33.487Z,14.10
2019-04-16T09:38:46.282Z,7.93
2019-04-16T09:44:02.099Z,8.57
2019-04-16T09:49:09.463Z,8.53
2019-04-16T09:54:15.331Z,8.87
2019-04-16T09:59:31.583Z,7.43
2019-04-16T10:04:37.504Z,8.68
2019-04-16T10:09:43.188Z,10.83
2019-04-16T10:14:48.838Z,8.60
2019-04-16T10:19:54.479Z,7.23
2019-04-16T10:25:01.780Z,9.73
2019-04-16T10:30:09.681Z,8.00
2019-04-16T10:35:15.421Z,7.07
2019-04-16T10:40:29.085Z,7.47
2019-04-16T10:45:39.659Z,6.77
2019-04-16T10:50:53.405Z,5.87
2019-04-16T10:56:03.815Z,9.60
2019-04-16T11:01:11.219Z,6.77
2019-04-16T11:06:21.274Z,9.20
2019-04-16T11:11:27.071Z,7.27
2019-04-16T11:16:35.880Z,6.80
2019-04-16T11:21:40.184Z,7.70
2019-04-16T11:26:46.919Z,7.57
2019-04-16T11:31:52.627Z,5.80
2019-04-16T11:36:58.574Z,7.17
2019-04-16T11:42:04.616Z,5.37
2019-04-16T11:47:10.292Z,8.30
2019-04-16T11:52:16.310Z,7.23
2019-04-16T11:57:22.125Z,8.27
2019-04-16T12:02:33.386Z,6.13
2019-04-16T12:07:47.134Z,7.57
2019-04-16T12:12:54.647Z,11.20
2019-04-16T12:18:11.430Z,6.80
2019-04-16T12:23:18.831Z,5.50
2019-04-16T12:28:26.169Z,7.83
2019-04-16T12:33:33.655Z,5.97
2019-04-16T12:38:44.128Z,6.37
2019-04-16T12:43:57.909Z,7.37
2019-04-16T12:49:11.435Z,5.03
2019-04-16T12:54:30.814Z,6.77
2019-04-16T12:59:40.887Z,7.47
2019-04-16T13:05:03.307Z,6.53
2019-04-16T13:10:10.983Z,6.23
2019-04-16T13:15:35.171Z,8.87
2019-04-16T13:21:03.983Z,7.93
2019-04-16T13:26:20.078Z,7.53
2019-04-16T13:31:25.980Z,6.07
2019-04-16T13:36:31.847Z,7.13
2019-04-16T13:41:37.706Z,7.10
2019-04-16T13:46:43.692Z,7.40
2019-04-16T13:51:49.966Z,7.73
2019-04-16T13:56:57.767Z,6.43
2019-04-16T14:02:05.111Z,7.57
2019-04-16T14:07:11.864Z,6.70
2019-04-16T14:12:28.015Z,7.33
2019-04-16T14:17:34.815Z,8.57
2019-04-16T14:22:38.729Z,6.37
2019-04-16T14:27:44.390Z,6.73
2019-04-16T14:32:50.014Z,7.63
2019-04-16T14:37:55.681Z,8.87
2019-04-16T14:43:01.461Z,8.00
2019-04-16T14:48:08.872Z,6.67
2019-04-16T14:53:17.340Z,5.77
2019-04-16T14:58:40.996Z,7.17
2019-04-16T15:03:51.381Z,7.40
2019-04-16T15:09:01.986Z,6.47
2019-04-16T15:14:14.576Z,5.63
2019-04-16T15:19:38.172Z,6.43
2019-04-16T15:24:45.427Z,7.43
2019-04-16T15:29:58.651Z,5.97
2019-04-16T15:35:05.652Z,7.57
2019-04-16T15:40:15.116Z,6.97
2019-04-16T15:45:35.586Z,7.03
2019-04-16T15:50:42.963Z,10.20
2019-04-16T15:55:50.300Z,8.40
2019-04-16T16:01:00.344Z,7.67
2019-04-16T16:06:16.768Z,9.33
2019-04-16T16:11:26.064Z,10.13
2019-04-16T16:16:41.434Z,9.90
2019-04-16T16:21:39.317Z,8.23
2019-04-16T16:26:45.184Z,9.37
2019-04-16T16:31:51.057Z,7.03
2019-04-16T16:36:56.830Z,8.13
2019-04-16T16:42:02.805Z,7.07
2019-04-16T16:47:10.274Z,9.47
2019-04-16T16:52:34.403Z,7.70
2019-04-16T16:57:41.949Z,7.10
2019-04-16T17:03:01.714Z,10.73
2019-04-16T17:08:07.580Z,7.07
2019-04-16T17:13:21.046Z,10.00
2019-04-16T17:18:24.847Z,7.40
2019-04-16T17:23:30.733Z,7.40
2019-04-16T17:28:36.605Z,6.80
2019-04-16T17:33:42.412Z,8.97
2019-04-16T17:38:48.344Z,7.60
2019-04-16T17:44:10.903Z,10.00
2019-04-16T17:49:27.635Z,8.63
2019-04-16T17:54:38.019Z,10.60
2019-04-16T17:59:51.465Z,7.57
2019-04-16T18:05:00.601Z,8.57
2019-04-16T18:10:12.838Z,9.67
2019-04-16T18:15:35.308Z,7.83
2019-04-16T18:20:56.817Z,13.47
2019-04-16T18:26:08.655Z,11.53
2019-04-16T18:31:18.904Z,11.73
2019-04-16T18:36:35.323Z,10.60
2019-04-16T18:41:49.255Z,11.80
2019-04-16T18:47:13.076Z,13.70
2019-04-16T18:52:19.422Z,13.13
2019-04-16T18:57:27.259Z,11.80
2019-04-16T19:02:33.863Z,15.57
2019-04-16T19:07:39.643Z,12.23
2019-04-16T19:12:45.437Z,14.73
2019-04-16T19:17:51.538Z,13.63
2019-04-16T19:22:57.352Z,14.23
2019-04-16T19:28:06.621Z,12.97
2019-04-16T19:33:10.840Z,11.63
2019-04-16T19:38:16.702Z,10.90
2019-04-16T19:43:22.590Z,13.33
2019-04-16T19:48:35.670Z,10.53
2019-04-16T19:53:36.387Z,10.23
2019-04-16T19:58:44.247Z,18.13
2019-04-16T20:03:53.378Z,10.43
2019-04-16T20:08:59.505Z,11.53
2019-04-16T20:14:06.056Z,12.77
2019-04-16T20:19:11.968Z,18.17
2019-04-16T20:24:17.859Z,11.23
2019-04-16T20:29:23.818Z,10.87
2019-04-16T20:34:29.679Z,12.90
2019-04-16T20:39:36.586Z,13.27
2019-04-16T20:44:42.459Z,11.47
2019-04-16T20:49:49.196Z,11.07
2019-04-16T20:54:56.000Z,9.93
2019-04-16T21:00:04.190Z,10.23
2019-04-16T21:05:22.115Z,12.17
2019-04-16T21:10:20.652Z,9.53
2019-04-16T21:15:27.391Z,12.77
2019-04-16T21:20:33.983Z,15.07
2019-04-16T21:25:42.861Z,16.97
2019-04-16T21:30:49.003Z,16.07
2019-04-16T21:35:56.576Z,15.67
2019-04-16T21:41:02.473Z,17.13
2019-04-16T21:46:08.132Z,19.00
2019-04-16T21:51:19.057Z,17.60
2019-04-16T21:56:21.707Z,18.73
2019-04-16T22:01:29.144Z,18.73
2019-04-16T22:06:34.903Z,12.27
2019-04-16T22:11:43.498Z,18.43
2019-04-16T22:16:47.805Z,14.00
2019-04-16T22:21:53.415Z,13.10
2019-04-16T22:26:58.957Z,9.03
2019-04-16T22:32:04.569Z,13.10
2019-04-16T22:37:10.345Z,12.40
2019-04-16T22:42:32.784Z,11.40
2019-04-16T22:47:39.936Z,13.40
2019-04-16T22:52:46.196Z,12.00
2019-04-16T22:57:51.687Z,12.63
2019-04-16T23:02:57.233Z,11.30
2019-04-16T23:08:02.873Z,11.13
2019-04-16T23:13:08.494Z,18.70
2019-04-16T23:18:17.278Z,13.10
2019-04-16T23:23:21.523Z,11.03
2019-04-16T23:28:28.715Z,12.50
2019-04-16T23:33:34.152Z,13.73
2019-04-16T23:38:39.766Z,10.70
2019-04-16T23:43:50.570Z,8.10
2019-04-16T23:49:01.185Z,7.23
2019-04-16T23:54:12.773Z,7.57
2019-04-16T23:59:19.881Z,8.33
